createdAt,value
2023-01-23T00:01:33.441Z,0.33
2023-01-23T00:04:01.068Z,0.31
2023-01-23T00:06:28.716Z,0.29
2023-01-23T00:08:56.979Z,0.27
2023-01-23T00:11:28.613Z,0.26
2023-01-23T00:13:57.377Z,0.27
2023-01-23T00:16:26.849Z,0.28
2023-01-23T00:18:54.362Z,0.32
2023-01-23T00:21:24.258Z,0.28
2023-01-23T00:23:56.253Z,0.30
2023-01-23T00:26:25.834Z,0.30
2023-01-23T00:28:54.683Z,0.25
2023-01-23T00:31:25.374Z,0.27
2023-01-23T00:33:58.460Z,0.27
2023-01-23T00:36:31.352Z,0.26
2023-01-23T00:38:58.716Z,0.28
2023-01-23T00:41:26.115Z,0.26
2023-01-23T00:43:56.278Z,0.30
2023-01-23T00:46:23.670Z,0.32
2023-01-23T00:48:51.527Z,0.32
2023-01-23T00:51:18.978Z,0.35
2023-01-23T00:53:49.915Z,0.33
2023-01-23T00:56:17.063Z,0.32
2023-01-23T00:58:45.347Z,0.33
2023-01-23T01:01:14.451Z,0.28
2023-01-23T01:03:42.272Z,0.30
2023-01-23T01:06:10.634Z,0.29
2023-01-23T01:08:40.216Z,0.31
2023-01-23T01:11:07.833Z,0.31
2023-01-23T01:13:37.804Z,0.32
2023-01-23T01:16:08.217Z,0.30
2023-01-23T01:18:36.622Z,0.33
2023-01-23T01:21:14.420Z,0.32
2023-01-23T01:23:42.013Z,0.32
2023-01-23T01:26:09.716Z,0.31
2023-01-23T01:28:39.419Z,0.33
2023-01-23T01:31:17.076Z,0.33
2023-01-23T01:33:45.253Z,0.31
2023-01-23T01:36:14.980Z,0.31
2023-01-23T01:38:42.697Z,0.26
2023-01-23T01:41:12.251Z,0.25
2023-01-23T01:43:39.608Z,0.30
2023-01-23T01:46:20.609Z,0.29
2023-01-23T01:48:57.126Z,0.26
2023-01-23T01:51:34.440Z,0.31
2023-01-23T01:54:10.698Z,0.28
2023-01-23T01:56:43.293Z,0.28
2023-01-23T01:59:12.187Z,0.33
2023-01-23T02:01:41.612Z,0.33
2023-01-23T02:04:09.753Z,0.32
2023-01-23T02:06:36.928Z,0.32
2023-01-23T02:09:12.908Z,0.36
2023-01-23T02:11:40.075Z,0.35
2023-01-23T02:14:07.681Z,0.35
2023-01-23T02:16:41.076Z,0.37
2023-01-23T02:19:27.603Z,0.35
2023-01-23T02:22:06.373Z,0.39
2023-01-23T02:24:43.098Z,0.36
2023-01-23T02:27:12.451Z,0.38
2023-01-23T02:29:42.179Z,0.39
2023-01-23T02:32:10.435Z,0.40
2023-01-23T02:34:38.849Z,0.39
2023-01-23T02:37:09.299Z,0.41
2023-01-23T02:39:37.542Z,0.45
2023-01-23T02:42:07.611Z,0.49
2023-01-23T02:44:53.936Z,0.53
2023-01-23T02:47:24.537Z,0.55
2023-01-23T02:49:52.189Z,0.56
2023-01-23T02:52:19.451Z,0.62
2023-01-23T02:54:47.622Z,0.64
2023-01-23T02:57:15.656Z,0.64
2023-01-23T03:00:01.499Z,0.67
2023-01-23T03:02:30.066Z,0.71
2023-01-23T03:04:57.354Z,0.73
2023-01-23T03:07:29.897Z,0.76
2023-01-23T03:09:57.319Z,0.71
2023-01-23T03:12:24.355Z,0.73
2023-01-23T03:14:56.535Z,0.70
2023-01-23T03:17:24.153Z,0.68
2023-01-23T03:19:52.865Z,0.71
2023-01-23T03:22:20.141Z,0.73
2023-01-23T03:24:47.599Z,0.77
2023-01-23T03:27:14.909Z,0.74
2023-01-23T03:30:05.749Z,0.71
2023-01-23T03:32:32.975Z,0.71
2023-01-23T03:35:00.471Z,0.70
2023-01-23T03:37:30.341Z,0.71
2023-01-23T03:40:16.931Z,0.68
2023-01-23T03:42:44.015Z,0.68
2023-01-23T03:45:14.683Z,0.66
2023-01-23T03:47:42.746Z,0.69
2023-01-23T03:50:10.301Z,0.68
2023-01-23T03:52:39.613Z,0.66
2023-01-23T03:55:07.959Z,0.64
2023-01-23T03:57:38.697Z,0.64
2023-01-23T04:00:16.947Z,0.63
2023-01-23T04:02:50.517Z,0.61
2023-01-23T04:05:19.079Z,0.61
2023-01-23T04:07:46.187Z,0.57
2023-01-23T04:10:17.012Z,0.56
2023-01-23T04:12:49.008Z,0.53
2023-01-23T04:15:16.583Z,0.60
2023-01-23T04:17:44.457Z,0.59
2023-01-23T04:20:13.645Z,0.56
2023-01-23T04:22:42.628Z,0.55
2023-01-23T04:25:10.382Z,0.53
2023-01-23T04:27:37.555Z,0.53
2023-01-23T04:30:06.307Z,0.52
2023-01-23T04:32:35.133Z,0.54
2023-01-23T04:35:03.233Z,0.49
2023-01-23T04:37:31.088Z,0.52
2023-01-23T04:39:59.583Z,0.56
2023-01-23T04:42:28.878Z,0.49
2023-01-23T04:45:04.287Z,0.47
2023-01-23T04:47:34.342Z,0.51
2023-01-23T04:50:05.010Z,0.51
2023-01-23T04:52:35.400Z,0.52
2023-01-23T04:55:06.759Z,0.54
2023-01-23T04:57:34.050Z,0.52
2023-01-23T05:00:13.714Z,0.53
2023-01-23T05:02:40.980Z,0.57
2023-01-23T05:05:09.225Z,0.53
2023-01-23T05:07:40.261Z,0.58
2023-01-23T05:10:10.921Z,0.49
2023-01-23T05:16:09.278Z,0.55
2023-01-23T05:18:56.757Z,0.52
2023-01-23T05:21:26.716Z,0.55
2023-01-23T05:23:54.703Z,0.55
2023-01-23T05:26:22.263Z,0.58
2023-01-23T05:28:49.656Z,0.56
2023-01-23T05:31:16.784Z,0.58
2023-01-23T05:33:58.606Z,0.57
2023-01-23T05:36:25.793Z,0.50
2023-01-23T05:38:57.715Z,0.52
2023-01-23T05:41:28.445Z,0.49
2023-01-23T05:44:35.260Z,0.44
2023-01-23T05:47:11.818Z,0.45
2023-01-23T05:49:39.111Z,0.48
2023-01-23T05:52:06.439Z,0.49
2023-01-23T05:54:34.409Z,0.49
2023-01-23T05:57:01.479Z,0.47
2023-01-23T05:59:47.393Z,0.48
2023-01-23T06:02:35.218Z,0.50
2023-01-23T06:05:08.989Z,0.47
2023-01-23T06:07:58.297Z,0.50
2023-01-23T06:10:26.058Z,0.53
2023-01-23T06:12:53.096Z,0.52
2023-01-23T06:15:25.377Z,0.53
2023-01-23T06:17:57.281Z,0.54
2023-01-23T06:20:26.027Z,0.51
2023-01-23T06:22:53.025Z,0.53
2023-01-23T06:25:22.089Z,0.57
2023-01-23T06:27:49.895Z,0.62
2023-01-23T06:30:17.925Z,0.62
2023-01-23T06:32:46.965Z,0.61
2023-01-23T06:35:18.480Z,0.61
2023-01-23T06:37:49.461Z,0.65
2023-01-23T06:40:22.759Z,0.63
2023-01-23T06:43:02.332Z,0.67
2023-01-23T06:45:29.925Z,0.63
2023-01-23T06:47:58.074Z,0.68
2023-01-23T06:50:27.734Z,0.68
2023-01-23T06:52:54.904Z,0.70
2023-01-23T06:55:23.063Z,0.70
2023-01-23T06:57:50.200Z,0.71
2023-01-23T07:00:19.513Z,0.74
2023-01-23T07:02:47.113Z,0.77
2023-01-23T07:05:14.814Z,0.76
2023-01-23T07:07:45.898Z,0.79
2023-01-23T07:10:13.558Z,0.75
2023-01-23T07:12:40.642Z,0.77
2023-01-23T07:15:09.620Z,0.80
2023-01-23T07:17:40.485Z,0.80
2023-01-23T07:20:08.996Z,0.87
2023-01-23T07:22:41.319Z,0.84
2023-01-23T07:25:08.996Z,0.87
2023-01-23T07:27:36.135Z,0.90
2023-01-23T07:30:06.465Z,0.87
2023-01-23T07:32:33.515Z,0.86
2023-01-23T07:35:01.103Z,0.91
2023-01-23T07:37:29.339Z,0.95
2023-01-23T07:39:57.544Z,0.96
2023-01-23T07:42:24.658Z,0.93
2023-01-23T07:44:53.754Z,0.94
2023-01-23T07:47:23.702Z,0.96
2023-01-23T07:49:50.944Z,0.97
2023-01-23T07:52:18.329Z,0.98
2023-01-23T07:54:47.662Z,0.98
2023-01-23T07:57:17.504Z,0.99
2023-01-23T07:59:44.547Z,1.04
2023-01-23T08:02:11.854Z,1.01
2023-01-23T08:04:39.038Z,1.06
2023-01-23T08:07:06.689Z,1.08
2023-01-23T08:09:33.766Z,1.12
2023-01-23T08:12:01.105Z,1.13
2023-01-23T08:14:30.415Z,1.15
2023-01-23T08:17:01.666Z,1.19
2023-01-23T08:19:28.827Z,1.24
2023-01-23T08:21:59.280Z,1.32
2023-01-23T08:24:28.481Z,1.28
2023-01-23T08:27:00.322Z,1.28
2023-01-23T08:29:28.126Z,1.25
2023-01-23T08:31:55.602Z,1.25
2023-01-23T08:34:24.140Z,1.30
2023-01-23T08:36:51.692Z,1.27
2023-01-23T08:39:21.231Z,1.29
2023-01-23T08:41:48.602Z,1.33
2023-01-23T08:44:15.635Z,1.28
2023-01-23T08:46:45.994Z,1.28
2023-01-23T08:49:13.485Z,1.30
2023-01-23T08:51:43.067Z,1.29
2023-01-23T08:54:10.262Z,1.32
2023-01-23T08:56:37.668Z,1.32
2023-01-23T08:59:04.750Z,1.31
2023-01-23T09:01:32.124Z,1.30
2023-01-23T09:03:59.187Z,1.33
2023-01-23T09:06:28.956Z,1.32
2023-01-23T09:08:56.091Z,1.35
2023-01-23T09:11:23.956Z,1.35
2023-01-23T09:13:53.798Z,1.39
2023-01-23T09:16:21.867Z,1.43
2023-01-23T09:18:49.012Z,1.47
2023-01-23T09:21:17.751Z,1.53
2023-01-23T09:23:45.725Z,1.49
2023-01-23T09:26:18.150Z,1.47
2023-01-23T09:28:46.779Z,1.44
2023-01-23T09:31:14.516Z,1.46
2023-01-23T09:33:42.392Z,1.48
2023-01-23T09:36:10.199Z,1.48
2023-01-23T09:38:37.205Z,1.49
2023-01-23T09:41:19.466Z,1.53
2023-01-23T09:43:59.320Z,1.51
2023-01-23T09:46:33.193Z,1.53
2023-01-23T09:49:11.183Z,1.54
2023-01-23T09:51:38.579Z,1.70
2023-01-23T09:54:13.881Z,1.73
2023-01-23T09:56:43.595Z,1.76
2023-01-23T09:59:10.677Z,1.78
2023-01-23T10:01:38.278Z,1.72
2023-01-23T10:04:05.998Z,1.79
2023-01-23T10:07:06.670Z,1.80
2023-01-23T10:10:18.790Z,1.77
2023-01-23T10:13:03.490Z,1.71
2023-01-23T10:15:30.521Z,1.67
2023-01-23T10:18:26.704Z,1.63
2023-01-23T10:21:02.479Z,1.58
2023-01-23T10:23:54.279Z,1.54
2023-01-23T10:26:31.622Z,1.62
2023-01-23T10:29:14.145Z,1.65
2023-01-23T10:31:53.988Z,1.66
2023-01-23T10:34:34.481Z,1.72
2023-01-23T10:37:17.076Z,1.73
2023-01-23T10:40:10.430Z,1.74
2023-01-23T10:42:37.397Z,1.79
2023-01-23T10:45:06.411Z,1.79
2023-01-23T10:47:44.049Z,1.79
2023-01-23T10:50:11.786Z,1.83
2023-01-23T10:52:42.398Z,1.83
2023-01-23T10:55:21.405Z,1.86
2023-01-23T10:57:53.252Z,1.87
2023-01-23T11:00:34.095Z,1.85
2023-01-23T11:03:20.122Z,1.89
2023-01-23T11:05:53.562Z,1.96
2023-01-23T11:08:31.273Z,1.98
2023-01-23T11:11:16.109Z,2.01
2023-01-23T11:13:48.686Z,2.08
2023-01-23T11:16:19.811Z,2.05
2023-01-23T11:19:09.100Z,2.12
2023-01-23T11:21:57.590Z,2.14
2023-01-23T11:24:40.373Z,2.08
2023-01-23T11:27:20.366Z,2.14
2023-01-23T11:30:09.300Z,2.17
2023-01-23T11:32:58.685Z,2.16
2023-01-23T11:36:12.066Z,2.31
2023-01-23T11:38:52.519Z,2.46
2023-01-23T11:41:27.003Z,2.44
2023-01-23T11:43:54.385Z,2.50
2023-01-23T11:46:27.574Z,2.52
2023-01-23T11:49:39.722Z,2.45
2023-01-23T11:52:17.996Z,2.52
2023-01-23T11:55:04.087Z,2.47
2023-01-23T11:57:54.370Z,2.50
2023-01-23T12:00:54.666Z,2.47
2023-01-23T12:03:40.392Z,2.48
2023-01-23T12:06:20.448Z,2.54
2023-01-23T12:08:53.731Z,2.63
2023-01-23T12:11:24.608Z,2.58
2023-01-23T12:14:00.900Z,2.59
2023-01-23T12:16:39.875Z,2.61
2023-01-23T12:19:16.153Z,2.63
2023-01-23T12:21:57.844Z,2.64
2023-01-23T12:24:54.171Z,2.60
2023-01-23T12:27:34.428Z,2.71
2023-01-23T12:30:25.383Z,2.84
2023-01-23T12:33:01.241Z,2.82
2023-01-23T12:35:50.795Z,2.97
2023-01-23T12:38:29.472Z,2.93
2023-01-23T12:41:06.541Z,2.99
2023-01-23T12:43:55.079Z,3.09
2023-01-23T12:46:39.681Z,3.04
2023-01-23T12:49:25.421Z,3.13
2023-01-23T12:52:17.900Z,3.17
2023-01-23T12:54:53.670Z,3.09
2023-01-23T12:57:52.827Z,3.22
2023-01-23T13:00:53.533Z,3.21
2023-01-23T13:03:44.958Z,3.29
2023-01-23T13:06:34.937Z,3.23
2023-01-23T13:09:29.176Z,3.27
2023-01-23T13:12:08.834Z,3.41
2023-01-23T13:15:06.499Z,3.44
2023-01-23T13:17:49.391Z,3.63
2023-01-23T13:20:38.134Z,3.69
2023-01-23T13:23:26.438Z,3.59
2023-01-23T13:26:12.436Z,3.53
2023-01-23T13:28:50.499Z,3.36
2023-01-23T13:31:26.863Z,3.49
2023-01-23T13:34:06.654Z,3.45
2023-01-23T13:36:37.858Z,3.41
2023-01-23T13:39:22.052Z,3.49
2023-01-23T13:42:12.805Z,3.36
2023-01-23T13:45:21.493Z,3.35
2023-01-23T14:25:42.655Z,2.84
2023-01-23T14:28:16.797Z,2.84
2023-01-23T14:30:55.592Z,2.83
2023-01-23T14:33:23.413Z,2.80
2023-01-23T14:35:53.377Z,2.76
2023-01-23T14:38:29.259Z,2.80
2023-01-23T14:40:58.946Z,2.79
2023-01-23T14:43:29.180Z,2.78
2023-01-23T14:46:14.013Z,2.72
2023-01-23T14:48:47.356Z,2.74
2023-01-23T14:51:26.169Z,2.72
2023-01-23T14:54:01.614Z,2.65
2023-01-23T14:56:36.864Z,2.66
2023-01-23T14:59:07.262Z,2.66
2023-01-23T15:01:36.007Z,2.61
2023-01-23T15:04:06.425Z,2.67
2023-01-23T15:06:35.910Z,2.62
2023-01-23T15:09:09.103Z,2.62
2023-01-23T15:11:39.520Z,2.62
2023-01-23T15:14:22.449Z,2.61
2023-01-23T15:16:51.883Z,2.59
2023-01-23T15:19:27.028Z,2.54
2023-01-23T15:22:28.019Z,2.53
2023-01-23T15:24:56.068Z,2.49
2023-01-23T15:27:33.978Z,2.49
2023-01-23T15:30:29.095Z,2.52
2023-01-23T15:32:58.070Z,2.54
2023-01-23T15:35:25.720Z,2.51
2023-01-23T15:37:59.665Z,2.51
2023-01-23T15:40:28.160Z,2.52
2023-01-23T15:43:18.831Z,2.51
2023-01-23T15:45:47.055Z,2.52
2023-01-23T15:48:17.040Z,2.54
2023-01-23T15:50:44.106Z,2.55
2023-01-23T15:53:13.727Z,2.55
2023-01-23T15:55:44.046Z,2.58
2023-01-23T15:58:17.213Z,2.52
2023-01-23T16:00:44.476Z,2.57
2023-01-23T16:03:14.815Z,2.64
2023-01-23T16:05:42.206Z,2.59
2023-01-23T16:08:20.907Z,2.62
2023-01-23T16:10:50.531Z,2.59
2023-01-23T16:13:17.968Z,2.55
2023-01-23T16:15:45.342Z,2.57
2023-01-23T16:18:15.072Z,2.52
2023-01-23T16:20:45.359Z,2.53
2023-01-23T16:23:31.234Z,2.55
2023-01-23T16:26:03.009Z,2.54
2023-01-23T16:28:32.510Z,2.59
2023-01-23T16:30:59.667Z,2.60
2023-01-23T16:33:31.937Z,2.60
2023-01-23T16:35:59.134Z,2.63
2023-01-23T16:38:29.041Z,2.64
2023-01-23T16:40:59.646Z,2.65
2023-01-23T16:43:27.579Z,2.65
2023-01-23T16:45:56.928Z,2.67
2023-01-23T16:48:28.510Z,2.63
2023-01-23T16:51:05.164Z,2.63
2023-01-23T16:53:41.024Z,2.65
2023-01-23T16:56:21.836Z,2.59
2023-01-23T16:58:50.545Z,2.58
2023-01-23T17:01:23.686Z,2.54
2023-01-23T17:04:03.942Z,2.52
2023-01-23T17:06:33.260Z,2.55
2023-01-23T17:09:01.618Z,2.55
2023-01-23T17:12:12.666Z,2.58
2023-01-23T17:14:42.842Z,2.54
2023-01-23T17:17:17.357Z,2.53
2023-01-23T17:19:47.328Z,2.49
2023-01-23T17:22:27.896Z,2.46
2023-01-23T17:24:55.839Z,2.47
2023-01-23T17:27:23.137Z,2.50
2023-01-23T17:29:50.993Z,2.50
2023-01-23T17:32:27.373Z,2.48
2023-01-23T17:34:55.616Z,2.50
2023-01-23T17:37:23.711Z,2.48
2023-01-23T17:39:52.029Z,2.48
2023-01-23T17:42:19.672Z,2.43
2023-01-23T17:44:48.058Z,2.45
2023-01-23T17:47:17.090Z,2.44
2023-01-23T17:49:51.708Z,2.47
2023-01-23T17:52:22.390Z,2.45
2023-01-23T17:54:50.220Z,2.46
2023-01-23T17:57:17.682Z,2.49
2023-01-23T17:59:47.768Z,2.45
2023-01-23T18:02:30.699Z,2.44
2023-01-23T18:04:59.834Z,2.47
2023-01-23T18:07:27.863Z,2.47
2023-01-23T18:09:56.585Z,2.47
2023-01-23T18:13:03.464Z,2.47
2023-01-23T18:15:35.343Z,2.47
2023-01-23T18:18:03.067Z,2.51
2023-01-23T18:20:38.851Z,2.49
2023-01-23T18:23:11.680Z,2.44
2023-01-23T18:25:45.498Z,2.48
2023-01-23T18:28:19.928Z,2.49
2023-01-23T18:31:16.889Z,2.42
2023-01-23T18:34:03.666Z,2.45
2023-01-23T18:36:40.081Z,2.41
2023-01-23T18:39:27.454Z,2.42
2023-01-23T18:42:14.692Z,2.46
2023-01-23T18:44:49.489Z,2.46
2023-01-23T18:47:17.660Z,2.43
2023-01-23T18:49:46.146Z,2.46
2023-01-23T18:52:13.507Z,2.49
2023-01-23T18:55:00.415Z,2.47
2023-01-23T18:57:32.481Z,2.47
2023-01-23T19:00:13.251Z,2.45
2023-01-23T19:02:41.246Z,2.47
2023-01-23T19:05:16.607Z,2.47
2023-01-23T19:07:45.588Z,2.45
2023-01-23T19:10:15.220Z,2.47
2023-01-23T19:12:51.047Z,2.46
2023-01-23T19:15:23.246Z,2.44
2023-01-23T19:18:07.086Z,2.46
2023-01-23T19:20:44.235Z,2.46
2023-01-23T19:23:29.718Z,2.45
2023-01-23T19:25:58.396Z,2.44
2023-01-23T19:28:26.453Z,2.40
2023-01-23T19:30:59.458Z,2.38
2023-01-23T19:33:27.365Z,2.38
2023-01-23T19:35:58.511Z,2.41
2023-01-23T19:38:26.257Z,2.44
2023-01-23T19:40:55.251Z,2.44
2023-01-23T19:43:24.238Z,2.43
2023-01-23T19:45:52.450Z,2.41
2023-01-23T19:48:20.035Z,2.40
2023-01-23T19:50:48.706Z,2.42
2023-01-23T19:53:19.741Z,2.44
2023-01-23T19:55:47.384Z,2.43
2023-01-23T19:58:16.284Z,2.44
2023-01-23T20:00:45.677Z,2.44
2023-01-23T20:03:15.311Z,2.44
2023-01-23T20:05:43.416Z,2.46
2023-01-23T20:08:11.727Z,2.44
2023-01-23T20:10:40.041Z,2.47
2023-01-23T20:13:10.004Z,2.47
2023-01-23T20:15:38.198Z,2.43
2023-01-23T20:18:10.241Z,2.40
2023-01-23T20:20:38.177Z,2.39
2023-01-23T20:23:05.800Z,2.43
2023-01-23T20:25:33.834Z,2.43
2023-01-23T20:28:04.164Z,2.41
2023-01-23T20:30:34.012Z,2.39
2023-01-23T20:33:02.567Z,2.45
2023-01-23T20:35:31.213Z,2.44
2023-01-23T20:38:02.325Z,2.45
2023-01-23T20:40:30.415Z,2.41
2023-01-23T20:42:58.251Z,2.37
2023-01-23T20:45:27.250Z,2.41
2023-01-23T20:47:58.741Z,2.41
2023-01-23T20:50:27.259Z,2.35
2023-01-23T20:53:15.662Z,2.34
2023-01-23T20:55:44.438Z,2.38
2023-01-23T20:58:30.925Z,2.36
2023-01-23T21:00:59.063Z,2.35
2023-01-23T21:03:27.087Z,2.38
2023-01-23T21:05:54.936Z,2.36
2023-01-23T21:08:23.364Z,2.36
2023-01-23T21:10:53.053Z,2.35
2023-01-23T21:13:23.443Z,2.35
2023-01-23T21:15:58.689Z,2.32
2023-01-23T21:18:26.231Z,2.31
2023-01-23T21:20:54.044Z,2.29
2023-01-23T21:23:21.741Z,2.30
2023-01-23T21:25:49.392Z,2.33
2023-01-23T21:28:17.051Z,2.30
2023-01-23T21:30:44.641Z,2.29
2023-01-23T21:33:14.379Z,2.30
2023-01-23T21:35:41.845Z,2.29
2023-01-23T21:38:08.968Z,2.28
2023-01-23T21:40:36.317Z,2.28
2023-01-23T21:43:03.533Z,2.26
2023-01-23T21:45:33.553Z,2.29
2023-01-23T21:48:00.846Z,2.29
2023-01-23T21:50:28.417Z,2.28
2023-01-23T21:52:55.680Z,2.33
2023-01-23T21:55:23.200Z,2.33
2023-01-23T21:57:50.407Z,2.37
2023-01-23T22:00:36.420Z,2.36
2023-01-23T22:03:03.945Z,2.35
2023-01-23T22:05:35.319Z,2.34
2023-01-23T22:08:02.817Z,2.35
2023-01-23T22:10:30.598Z,2.33
2023-01-23T22:12:57.930Z,2.34
2023-01-23T22:15:27.948Z,2.35
2023-01-23T22:17:54.898Z,2.32
2023-01-23T22:20:22.086Z,2.36
2023-01-23T22:22:49.015Z,2.34
2023-01-23T22:25:16.659Z,2.34
2023-01-23T22:27:44.332Z,2.32
2023-01-23T22:30:12.702Z,2.37
2023-01-23T22:32:39.740Z,2.32
2023-01-23T22:35:09.384Z,2.34
2023-01-23T22:37:36.606Z,2.39
2023-01-23T22:40:04.176Z,2.37
2023-01-23T22:42:31.536Z,2.37
2023-01-23T22:44:58.838Z,2.37
2023-01-23T22:47:28.454Z,2.38
2023-01-23T22:49:55.794Z,2.37
2023-01-23T22:52:23.058Z,2.34
2023-01-23T22:54:50.281Z,2.38
2023-01-23T22:57:17.272Z,2.35
2023-01-23T22:59:44.704Z,2.38
2023-01-23T23:02:11.655Z,2.42
2023-01-23T23:04:41.468Z,2.46
2023-01-23T23:07:08.519Z,2.45
2023-01-23T23:09:35.818Z,2.46
2023-01-23T23:12:02.833Z,2.45
2023-01-23T23:14:30.014Z,2.46
2023-01-23T23:16:57.132Z,2.46
2023-01-23T23:19:24.331Z,2.42
2023-01-23T23:21:51.245Z,2.44
2023-01-23T23:24:21.113Z,2.44
2023-01-23T23:26:48.467Z,2.46
2023-01-23T23:29:15.988Z,2.45
2023-01-23T23:31:43.051Z,2.45
2023-01-23T23:34:10.416Z,2.44
2023-01-23T23:36:37.303Z,2.43
2023-01-23T23:39:04.633Z,2.42
2023-01-23T23:41:32.492Z,2.45
2023-01-23T23:43:59.896Z,2.48
2023-01-23T23:46:27.034Z,2.45
2023-01-23T23:48:54.367Z,2.40
2023-01-23T23:51:22.975Z,2.41
2023-01-23T23:53:50.416Z,2.40
2023-01-23T23:56:19.633Z,2.42
2023-01-23T23:58:46.805Z,2.43
